Time;durP1;ratioP1;P1;durP2;ratioP2;P2;SDS_P1;SDS_P2;PMS_P1;PMS_P2;Temp;Humidity;BMP_temperature;BMP_pressure;BME280_temperature;BME280_humidity;BME280_pressure;Samples;Min_cycle;Max_cycle;Signal;HPM_P1;HPM_P2
2020/12/31 00:00:35;;;;;;;9.75;4.03;;;;;;;;;;5125542;27;20150;-66
2020/12/31 00:03:01;;;;;;;7.65;4.30;;;;;;;;;;5098091;28;20055;-66
2020/12/31 00:05:27;;;;;;;13.77;4.78;;;;;;;;;;5092157;28;20074;-66
2020/12/31 00:07:53;;;;;;;8.60;4.47;;;;;;;;;;5093927;28;20055;-66
2020/12/31 00:10:20;;;;;;;9.10;5.15;;;;;;;;;;5098310;28;20040;-66
2020/12/31 00:12:46;;;;;;;8.48;5.03;;;;;;;;;;5092327;28;20500;-66
2020/12/31 00:15:12;;;;;;;8.63;4.82;;;;;;;;;;5092810;28;20058;-66
2020/12/31 00:17:39;;;;;;;7.78;4.10;;;;;;;;;;5091575;28;20479;-66
2020/12/31 00:20:06;;;;;;;10.73;4.15;;;;;;;;;;5098763;28;20040;-66
2020/12/31 00:22:32;;;;;;;8.75;3.58;;;;;;;;;;5091674;28;20112;-66
2020/12/31 00:24:59;;;;;;;9.88;5.10;;;;;;;;;;5091958;28;20040;-66
2020/12/31 00:27:25;;;;;;;8.55;3.90;;;;;;;;;;5092597;28;20040;-66
2020/12/31 00:29:51;;;;;;;8.65;4.95;;;;;;;;;;5091556;28;20126;-66
2020/12/31 00:32:18;;;;;;;11.60;5.43;;;;;;;;;;5092287;28;20482;-66
2020/12/31 00:34:44;;;;;;;12.25;5.43;;;;;;;;;;5099028;28;20044;-66
2020/12/31 00:37:10;;;;;;;12.48;5.00;;;;;;;;;;5091366;28;20062;-66
2020/12/31 00:39:37;;;;;;;11.82;5.82;;;;;;;;;;5097591;28;20544;-66
2020/12/31 00:42:03;;;;;;;13.52;6.22;;;;;;;;;;5093913;28;20043;-66
2020/12/31 00:44:30;;;;;;;11.57;6.40;;;;;;;;;;5091274;28;20120;-66
2020/12/31 00:46:56;;;;;;;13.55;8.32;;;;;;;;;;5091711;28;20054;-66
2020/12/31 00:49:23;;;;;;;18.13;9.90;;;;;;;;;;5083590;28;20052;-67
2020/12/31 00:51:49;;;;;;;19.08;10.70;;;;;;;;;;5080828;28;20048;-66
2020/12/31 00:54:16;;;;;;;20.45;11.55;;;;;;;;;;5075248;28;20123;-66
2020/12/31 00:56:42;;;;;;;20.02;11.88;;;;;;;;;;5092677;28;20714;-66
2020/12/31 00:59:08;;;;;;;28.13;13.30;;;;;;;;;;5115668;27;20036;-66
2020/12/31 01:01:35;;;;;;;26.23;15.02;;;;;;;;;;5091754;28;20455;-66
2020/12/31 01:04:01;;;;;;;31.08;16.05;;;;;;;;;;5091343;28;20048;-66
2020/12/31 01:06:35;;;;;;;29.85;16.60;;;;;;;;;;5094842;28;20139;-66
2020/12/31 01:09:01;;;;;;;39.63;19.00;;;;;;;;;;5094886;28;20055;-66
2020/12/31 01:11:27;;;;;;;35.72;19.58;;;;;;;;;;5094154;28;20068;-66
2020/12/31 01:13:53;;;;;;;44.40;22.98;;;;;;;;;;5089711;28;20144;-66
2020/12/31 01:16:20;;;;;;;45.65;25.73;;;;;;;;;;5092558;28;20074;-66
2020/12/31 01:18:46;;;;;;;51.42;26.85;;;;;;;;;;5091482;28;20371;-66
2020/12/31 01:21:12;;;;;;;50.25;27.17;;;;;;;;;;5094869;28;20105;-66
2020/12/31 01:23:38;;;;;;;54.67;30.13;;;;;;;;;;5091919;28;20043;-66
2020/12/31 01:26:05;;;;;;;55.83;32.28;;;;;;;;;;5090716;28;20036;-66
2020/12/31 01:28:32;;;;;;;62.30;31.95;;;;;;;;;;5091252;28;20060;-67
2020/12/31 01:30:58;;;;;;;64.07;33.08;;;;;;;;;;5090846;28;20044;-66
2020/12/31 01:33:24;;;;;;;65.82;33.40;;;;;;;;;;5096622;28;20044;-66
2020/12/31 01:35:51;;;;;;;67.07;32.25;;;;;;;;;;5091473;28;20040;-66
2020/12/31 01:38:17;;;;;;;56.90;31.70;;;;;;;;;;5091452;28;20047;-66
2020/12/31 01:40:47;;;;;;;67.53;33.70;;;;;;;;;;5090473;28;20077;-66
2020/12/31 01:43:14;;;;;;;70.70;34.92;;;;;;;;;;5091895;28;20137;-66
2020/12/31 01:45:40;;;;;;;69.18;34.53;;;;;;;;;;5091514;28;20044;-66
2020/12/31 01:48:08;;;;;;;66.82;36.25;;;;;;;;;;5090118;28;20044;-66
2020/12/31 01:50:34;;;;;;;66.57;34.83;;;;;;;;;;5090923;28;20063;-66
2020/12/31 01:53:00;;;;;;;69.70;35.30;;;;;;;;;;5091533;28;20050;-66
2020/12/31 01:55:27;;;;;;;69.50;34.72;;;;;;;;;;5090613;28;20558;-66
2020/12/31 01:57:54;;;;;;;63.67;33.78;;;;;;;;;;5091100;28;20048;-66
2020/12/31 02:00:20;;;;;;;69.25;35.28;;;;;;;;;;5085229;28;20059;-66
2020/12/31 02:02:46;;;;;;;69.13;34.80;;;;;;;;;;5084921;28;20054;-66
2020/12/31 02:05:13;;;;;;;63.90;33.88;;;;;;;;;;5105476;28;20048;-66
2020/12/31 02:07:39;;;;;;;62.00;32.97;;;;;;;;;;5094788;28;20043;-66
2020/12/31 02:10:05;;;;;;;62.80;35.17;;;;;;;;;;5094142;28;20161;-66
2020/12/31 02:12:33;;;;;;;56.35;32.90;;;;;;;;;;5095692;28;20097;-66
2020/12/31 02:14:59;;;;;;;60.92;33.70;;;;;;;;;;5096162;28;20067;-66
2020/12/31 02:17:25;;;;;;;47.20;29.55;;;;;;;;;;5094027;28;20047;-66
2020/12/31 02:19:51;;;;;;;41.97;26.08;;;;;;;;;;5094633;28;20054;-66
2020/12/31 02:22:18;;;;;;;37.17;25.02;;;;;;;;;;5093136;28;20086;-66
2020/12/31 02:24:44;;;;;;;22.40;15.73;;;;;;;;;;5094618;28;20044;-66
2020/12/31 02:27:10;;;;;;;20.48;11.70;;;;;;;;;;5102780;28;20036;-66
2020/12/31 02:29:37;;;;;;;19.42;11.70;;;;;;;;;;5093803;28;20167;-66
2020/12/31 02:32:03;;;;;;;12.25;8.60;;;;;;;;;;5094593;28;20440;-66
2020/12/31 02:34:30;;;;;;;9.90;4.82;;;;;;;;;;5094898;28;20052;-66
2020/12/31 02:36:56;;;;;;;6.47;4.00;;;;;;;;;;5094612;28;20056;-66
2020/12/31 02:39:23;;;;;;;5.95;3.58;;;;;;;;;;5093772;28;20052;-66
2020/12/31 02:41:49;;;;;;;4.88;3.30;;;;;;;;;;5093988;28;20040;-66
2020/12/31 02:44:16;;;;;;;6.10;3.22;;;;;;;;;;5108649;28;20501;-66
2020/12/31 02:46:42;;;;;;;5.57;2.53;;;;;;;;;;5100026;28;20489;-66
2020/12/31 02:49:08;;;;;;;3.95;1.65;;;;;;;;;;5094299;28;20055;-66
2020/12/31 02:51:35;;;;;;;3.25;1.77;;;;;;;;;;5093416;28;20490;-66
2020/12/31 02:54:01;;;;;;;2.80;1.50;;;;;;;;;;5092674;28;20406;-66
2020/12/31 02:56:28;;;;;;;5.68;1.63;;;;;;;;;;5091638;28;20114;-66
2020/12/31 02:58:55;;;;;;;3.53;1.42;;;;;;;;;;5094441;28;20451;-66
2020/12/31 03:01:21;;;;;;;3.67;1.70;;;;;;;;;;5094300;28;20115;-66
2020/12/31 03:03:48;;;;;;;2.88;1.38;;;;;;;;;;5092584;28;20051;-66
2020/12/31 03:06:15;;;;;;;3.28;1.73;;;;;;;;;;5089551;28;20130;-66
2020/12/31 03:08:42;;;;;;;2.83;1.60;;;;;;;;;;5092140;28;20044;-66
2020/12/31 03:11:10;;;;;;;3.30;1.50;;;;;;;;;;5093963;28;20041;-66
2020/12/31 03:13:36;;;;;;;2.75;1.30;;;;;;;;;;5087502;28;20092;-66
2020/12/31 03:16:02;;;;;;;3.55;1.50;;;;;;;;;;5093813;28;20123;-66
2020/12/31 03:18:28;;;;;;;2.78;1.27;;;;;;;;;;5092759;28;20455;-66
2020/12/31 03:20:55;;;;;;;2.95;1.45;;;;;;;;;;5093386;28;20395;-66
2020/12/31 03:23:21;;;;;;;3.83;1.40;;;;;;;;;;5093299;28;20047;-66
2020/12/31 03:25:48;;;;;;;2.13;0.93;;;;;;;;;;5098632;28;20036;-66
2020/12/31 03:28:15;;;;;;;2.28;1.15;;;;;;;;;;5097463;28;20040;-66
2020/12/31 03:30:42;;;;;;;2.38;1.05;;;;;;;;;;5089521;28;20093;-66
2020/12/31 03:33:12;;;;;;;2.72;1.10;;;;;;;;;;5093540;28;20472;-66
2020/12/31 03:35:40;;;;;;;1.95;1.00;;;;;;;;;;5093709;28;20036;-66
2020/12/31 03:38:06;;;;;;;2.40;1.20;;;;;;;;;;5093427;28;20047;-66
2020/12/31 03:40:33;;;;;;;2.75;1.30;;;;;;;;;;5093709;28;20475;-66
2020/12/31 03:42:59;;;;;;;2.67;1.10;;;;;;;;;;5092997;28;20086;-66
2020/12/31 03:45:25;;;;;;;5.43;1.48;;;;;;;;;;5092477;28;20036;-66
2020/12/31 03:47:51;;;;;;;4.05;1.13;;;;;;;;;;5094558;28;20047;-66
2020/12/31 03:50:18;;;;;;;2.30;1.20;;;;;;;;;;5094546;28;20039;-66
2020/12/31 03:52:44;;;;;;;3.50;1.40;;;;;;;;;;5094145;28;20395;-66
2020/12/31 03:55:10;;;;;;;3.17;1.13;;;;;;;;;;5092172;28;20068;-66
2020/12/31 03:57:37;;;;;;;3.60;1.50;;;;;;;;;;5097067;28;20043;-66
2020/12/31 04:00:04;;;;;;;3.45;1.40;;;;;;;;;;5094021;28;20044;-66
2020/12/31 04:02:30;;;;;;;2.17;1.17;;;;;;;;;;5091085;28;20044;-66
2020/12/31 04:04:57;;;;;;;2.72;1.27;;;;;;;;;;5083741;28;20047;-66
2020/12/31 04:07:23;;;;;;;3.05;1.55;;;;;;;;;;5096331;28;20040;-66
2020/12/31 04:09:49;;;;;;;2.80;1.30;;;;;;;;;;5092005;28;20069;-66
2020/12/31 04:12:16;;;;;;;3.85;1.50;;;;;;;;;;5098900;28;20098;-66
2020/12/31 04:14:42;;;;;;;3.50;1.45;;;;;;;;;;5081196;28;20052;-66
2020/12/31 04:17:08;;;;;;;4.22;1.50;;;;;;;;;;5089257;28;20062;-66
2020/12/31 04:19:34;;;;;;;4.20;1.48;;;;;;;;;;5079530;28;20040;-66
2020/12/31 04:22:01;;;;;;;3.53;1.50;;;;;;;;;;5104544;28;20408;-66
2020/12/31 04:24:27;;;;;;;3.40;1.23;;;;;;;;;;5094543;28;20131;-66
2020/12/31 04:26:53;;;;;;;3.05;1.40;;;;;;;;;;5092347;28;20052;-66
2020/12/31 04:29:19;;;;;;;3.17;1.50;;;;;;;;;;5091716;28;20104;-66
2020/12/31 04:31:46;;;;;;;3.00;1.60;;;;;;;;;;5092919;28;20185;-66
2020/12/31 04:34:12;;;;;;;4.50;1.50;;;;;;;;;;5092289;28;20058;-66
2020/12/31 04:36:38;;;;;;;5.97;1.35;;;;;;;;;;5089621;28;20450;-66
2020/12/31 04:39:05;;;;;;;3.67;1.60;;;;;;;;;;5096891;28;20043;-66
2020/12/31 04:41:32;;;;;;;4.80;1.70;;;;;;;;;;5092139;28;20162;-66
2020/12/31 04:43:58;;;;;;;4.38;1.80;;;;;;;;;;5090939;28;20051;-66
2020/12/31 04:46:27;;;;;;;4.45;1.48;;;;;;;;;;5091689;28;20757;-66
2020/12/31 04:48:56;;;;;;;3.55;1.90;;;;;;;;;;5092448;28;20058;-66
2020/12/31 04:51:24;;;;;;;5.78;2.08;;;;;;;;;;5091593;28;20065;-66
2020/12/31 04:53:51;;;;;;;5.90;2.55;;;;;;;;;;5089509;28;20078;-66
2020/12/31 04:56:19;;;;;;;5.70;2.38;;;;;;;;;;5086189;28;20040;-66
2020/12/31 04:58:46;;;;;;;6.80;2.38;;;;;;;;;;5092077;28;20448;-66
2020/12/31 05:01:15;;;;;;;4.95;2.58;;;;;;;;;;5101130;28;20044;-66
2020/12/31 05:03:41;;;;;;;4.10;2.25;;;;;;;;;;5092799;28;20140;-66
2020/12/31 05:06:09;;;;;;;4.85;2.40;;;;;;;;;;5090981;28;20447;-66
2020/12/31 05:08:35;;;;;;;6.22;2.67;;;;;;;;;;5091599;28;20047;-66
2020/12/31 05:11:01;;;;;;;5.60;3.15;;;;;;;;;;5086930;28;20040;-66
2020/12/31 05:13:28;;;;;;;5.72;3.78;;;;;;;;;;5085114;28;20082;-66
2020/12/31 05:15:54;;;;;;;5.95;3.67;;;;;;;;;;5092503;28;20441;-66
2020/12/31 05:18:22;;;;;;;6.80;4.00;;;;;;;;;;5090826;28;20408;-66
2020/12/31 05:20:50;;;;;;;8.10;4.97;;;;;;;;;;5091665;28;20094;-66
2020/12/31 05:23:17;;;;;;;7.85;5.50;;;;;;;;;;5092425;28;20350;-66
2020/12/31 05:25:44;;;;;;;15.63;6.88;;;;;;;;;;5091601;28;20106;-66
2020/12/31 05:28:24;;;;;;;11.38;7.35;;;;;;;;;;5085052;28;20049;-66
2020/12/31 05:30:51;;;;;;;10.73;7.03;;;;;;;;;;5087995;28;20043;-66
2020/12/31 05:33:24;;;;;;;10.90;7.05;;;;;;;;;;5090542;28;20055;-66
2020/12/31 05:35:50;;;;;;;13.68;7.25;;;;;;;;;;5096527;28;20154;-66
2020/12/31 05:38:23;;;;;;;11.63;7.97;;;;;;;;;;5096900;28;20483;-66
2020/12/31 05:41:02;;;;;;;12.60;8.20;;;;;;;;;;5094638;28;20063;-66
2020/12/31 05:43:28;;;;;;;13.85;8.45;;;;;;;;;;5095244;28;20183;-66
2020/12/31 05:46:05;;;;;;;14.45;8.60;;;;;;;;;;5083352;28;20086;-66
2020/12/31 05:48:32;;;;;;;13.18;8.00;;;;;;;;;;5097285;28;20149;-66
2020/12/31 05:50:58;;;;;;;15.82;8.48;;;;;;;;;;5095319;28;20403;-66
2020/12/31 05:53:25;;;;;;;14.15;8.00;;;;;;;;;;5093290;28;20028;-66
2020/12/31 05:55:54;;;;;;;17.73;10.45;;;;;;;;;;5095466;28;20105;-66
2020/12/31 05:58:23;;;;;;;15.13;9.50;;;;;;;;;;5096030;28;20063;-66
2020/12/31 06:01:01;;;;;;;13.27;8.85;;;;;;;;;;5094792;28;20415;-66
2020/12/31 06:03:36;;;;;;;21.15;10.82;;;;;;;;;;5091750;28;20045;-66
2020/12/31 06:06:05;;;;;;;14.68;10.40;;;;;;;;;;5095363;28;20060;-66
2020/12/31 06:08:32;;;;;;;15.68;9.65;;;;;;;;;;5095515;28;20157;-66
2020/12/31 06:11:02;;;;;;;17.30;10.50;;;;;;;;;;5095157;28;20048;-66
2020/12/31 06:13:37;;;;;;;15.82;9.75;;;;;;;;;;5094967;28;20048;-66
2020/12/31 06:16:05;;;;;;;17.55;11.02;;;;;;;;;;5093943;28;20087;-66
2020/12/31 06:18:33;;;;;;;18.30;11.57;;;;;;;;;;5098625;28;20476;-66
2020/12/31 06:21:02;;;;;;;16.05;10.52;;;;;;;;;;5094981;28;20210;-66
2020/12/31 06:23:37;;;;;;;15.88;11.00;;;;;;;;;;5086002;28;20048;-66
2020/12/31 06:26:13;;;;;;;19.33;11.98;;;;;;;;;;5117078;27;20041;-66
2020/12/31 06:28:46;;;;;;;19.02;11.90;;;;;;;;;;5082550;28;20044;-66
2020/12/31 06:31:13;;;;;;;21.20;11.75;;;;;;;;;;5088696;28;20129;-66
2020/12/31 06:33:41;;;;;;;22.02;11.73;;;;;;;;;;5089683;28;20036;-66
2020/12/31 06:36:08;;;;;;;21.15;12.65;;;;;;;;;;5086178;28;20085;-66
2020/12/31 06:38:37;;;;;;;22.45;12.15;;;;;;;;;;5088285;28;20040;-66
2020/12/31 06:41:04;;;;;;;21.30;13.13;;;;;;;;;;5126861;27;20480;-66
2020/12/31 06:43:32;;;;;;;22.45;12.27;;;;;;;;;;5087882;28;20078;-66
2020/12/31 06:45:58;;;;;;;22.65;13.13;;;;;;;;;;5084540;28;20495;-66
2020/12/31 06:48:25;;;;;;;22.85;13.50;;;;;;;;;;5087123;28;20048;-65
2020/12/31 06:50:58;;;;;;;21.58;13.23;;;;;;;;;;5091001;28;20032;-66
2020/12/31 06:53:28;;;;;;;24.92;13.23;;;;;;;;;;5088976;28;20081;-66
2020/12/31 06:55:54;;;;;;;22.70;13.93;;;;;;;;;;5080070;28;20407;-66
2020/12/31 06:58:21;;;;;;;22.30;13.68;;;;;;;;;;5078161;28;20036;-66
2020/12/31 07:00:48;;;;;;;21.65;12.82;;;;;;;;;;5095895;28;20057;-66
2020/12/31 07:03:15;;;;;;;23.95;12.90;;;;;;;;;;5095215;28;20051;-66
2020/12/31 07:05:41;;;;;;;22.88;13.45;;;;;;;;;;5089312;28;20147;-66
2020/12/31 07:08:08;;;;;;;23.52;13.05;;;;;;;;;;5088911;28;20039;-66
2020/12/31 07:10:43;;;;;;;20.02;13.27;;;;;;;;;;5086824;28;20063;-66
2020/12/31 07:13:29;;;;;;;20.83;12.55;;;;;;;;;;5084521;28;20083;-66
2020/12/31 07:15:56;;;;;;;21.90;12.70;;;;;;;;;;5091627;28;20128;-66
2020/12/31 07:18:23;;;;;;;24.10;12.65;;;;;;;;;;5085165;28;20062;-66
2020/12/31 07:20:50;;;;;;;20.85;12.40;;;;;;;;;;5089451;28;20043;-66
2020/12/31 07:23:16;;;;;;;22.05;11.70;;;;;;;;;;5084193;28;20170;-65
2020/12/31 07:25:43;;;;;;;20.35;11.95;;;;;;;;;;5084310;28;20059;-66
2020/12/31 07:28:16;;;;;;;19.70;12.38;;;;;;;;;;5091056;28;20105;-66
2020/12/31 07:30:55;;;;;;;26.30;14.30;;;;;;;;;;5087032;28;20106;-66
2020/12/31 07:33:34;;;;;;;27.38;13.77;;;;;;;;;;5076533;28;20036;-66
2020/12/31 07:36:11;;;;;;;24.85;12.77;;;;;;;;;;5095505;28;20040;-67
2020/12/31 07:38:37;;;;;;;25.88;13.45;;;;;;;;;;5094387;28;20040;-66
2020/12/31 07:41:04;;;;;;;34.90;15.90;;;;;;;;;;5123870;27;20063;-66
2020/12/31 07:43:31;;;;;;;30.20;14.93;;;;;;;;;;5093553;28;20245;-66
2020/12/31 07:46:00;;;;;;;37.63;16.73;;;;;;;;;;5087378;28;20050;-67
2020/12/31 07:48:27;;;;;;;30.23;15.43;;;;;;;;;;5093305;28;20043;-66
2020/12/31 07:50:54;;;;;;;29.08;14.77;;;;;;;;;;5096098;28;20050;-63
2020/12/31 07:53:21;;;;;;;30.38;14.90;;;;;;;;;;5094785;28;20444;-63
2020/12/31 07:55:48;;;;;;;33.03;15.85;;;;;;;;;;5093914;28;20048;-63
2020/12/31 07:58:17;;;;;;;27.08;14.55;;;;;;;;;;5091857;28;20097;-63
2020/12/31 08:00:43;;;;;;;30.92;15.80;;;;;;;;;;5092922;28;20074;-63
2020/12/31 08:03:10;;;;;;;36.30;16.02;;;;;;;;;;5100167;28;20052;-63
2020/12/31 08:05:37;;;;;;;33.30;16.20;;;;;;;;;;5092926;28;20127;-64
2020/12/31 08:08:04;;;;;;;36.10;16.80;;;;;;;;;;5094071;28;20043;-63
2020/12/31 08:10:35;;;;;;;37.35;16.33;;;;;;;;;;5091493;28;20036;-64
2020/12/31 08:13:03;;;;;;;45.38;18.35;;;;;;;;;;5094471;28;20045;-63
2020/12/31 08:15:31;;;;;;;40.45;17.30;;;;;;;;;;5089841;28;20450;-64
2020/12/31 08:17:58;;;;;;;40.55;17.33;;;;;;;;;;5086764;28;20044;-63
2020/12/31 08:20:25;;;;;;;46.10;19.20;;;;;;;;;;5086365;28;20044;-64
2020/12/31 08:22:53;;;;;;;52.35;18.98;;;;;;;;;;5094006;28;20040;-63
2020/12/31 08:25:27;;;;;;;52.15;18.38;;;;;;;;;;5091339;28;20063;-63
2020/12/31 08:28:04;;;;;;;50.58;20.75;;;;;;;;;;5078196;28;20420;-64
2020/12/31 08:30:31;;;;;;;42.20;18.50;;;;;;;;;;5090674;28;20079;-63
2020/12/31 08:32:58;;;;;;;40.03;19.73;;;;;;;;;;5089601;28;20044;-63
2020/12/31 08:35:41;;;;;;;54.70;22.50;;;;;;;;;;5085987;28;20049;-64
2020/12/31 08:38:09;;;;;;;61.45;28.90;;;;;;;;;;5115560;27;20442;-64
2020/12/31 08:40:45;;;;;;;61.30;28.17;;;;;;;;;;5085170;28;20124;-64
2020/12/31 08:43:21;;;;;;;50.35;20.80;;;;;;;;;;5085409;28;20085;-63
2020/12/31 08:45:49;;;;;;;48.80;18.63;;;;;;;;;;5089199;28;20568;-64
2020/12/31 08:48:22;;;;;;;47.53;17.45;;;;;;;;;;5090396;28;20036;-63
2020/12/31 08:50:59;;;;;;;41.38;16.25;;;;;;;;;;5095101;28;20158;-63
2020/12/31 08:53:26;;;;;;;37.17;15.95;;;;;;;;;;5087968;28;20051;-63
2020/12/31 08:55:55;;;;;;;45.40;17.55;;;;;;;;;;5093287;28;20086;-63
2020/12/31 08:58:25;;;;;;;38.30;17.30;;;;;;;;;;5090483;28;20040;-65
2020/12/31 09:00:52;;;;;;;40.97;16.50;;;;;;;;;;5091537;28;20129;-73
2020/12/31 09:03:19;;;;;;;41.78;16.95;;;;;;;;;;5091030;28;20044;-63
2020/12/31 09:05:59;;;;;;;45.40;18.00;;;;;;;;;;5102180;28;20067;-70
2020/12/31 09:08:26;;;;;;;47.95;19.27;;;;;;;;;;5093317;28;20071;-62
2020/12/31 09:11:00;;;;;;;47.50;18.63;;;;;;;;;;5092014;28;20044;-62
2020/12/31 09:13:26;;;;;;;43.35;18.95;;;;;;;;;;5097141;28;20146;-62
2020/12/31 09:16:09;;;;;;;43.05;18.98;;;;;;;;;;5091962;28;20055;-63
2020/12/31 09:18:36;;;;;;;45.45;19.52;;;;;;;;;;5094226;28;20066;-62
2020/12/31 09:21:02;;;;;;;49.67;20.30;;;;;;;;;;5094085;28;20050;-73
2020/12/31 09:23:28;;;;;;;58.95;23.25;;;;;;;;;;5094359;28;20042;-70
2020/12/31 09:25:54;;;;;;;58.40;22.17;;;;;;;;;;5092940;28;20406;-69
2020/12/31 09:28:22;;;;;;;63.15;23.33;;;;;;;;;;5090507;28;20050;-69
2020/12/31 09:30:49;;;;;;;56.30;23.05;;;;;;;;;;5089280;28;20032;-69
2020/12/31 09:33:17;;;;;;;64.35;27.05;;;;;;;;;;5090965;28;20043;-69
2020/12/31 09:35:44;;;;;;;53.83;25.00;;;;;;;;;;5090909;28;20039;-70
2020/12/31 09:38:10;;;;;;;62.22;25.73;;;;;;;;;;5091365;28;20480;-70
2020/12/31 09:40:37;;;;;;;59.95;25.92;;;;;;;;;;5089760;28;20412;-71
2020/12/31 09:43:03;;;;;;;54.35;24.15;;;;;;;;;;5091405;28;20457;-71
2020/12/31 09:45:29;;;;;;;46.25;22.23;;;;;;;;;;5090664;28;20044;-70
2020/12/31 09:48:00;;;;;;;52.80;23.58;;;;;;;;;;5092373;28;20029;-71
2020/12/31 09:50:27;;;;;;;42.13;22.50;;;;;;;;;;5089689;28;20471;-70
2020/12/31 09:52:54;;;;;;;46.83;22.90;;;;;;;;;;5095368;28;20432;-71
2020/12/31 09:55:21;;;;;;;42.50;21.45;;;;;;;;;;5091544;28;20070;-70
2020/12/31 09:57:47;;;;;;;46.47;23.58;;;;;;;;;;5092187;28;20353;-70
2020/12/31 10:00:13;;;;;;;47.92;23.30;;;;;;;;;;5089307;28;20142;-71
2020/12/31 10:02:40;;;;;;;37.78;19.77;;;;;;;;;;5090215;28;20044;-72
2020/12/31 10:05:06;;;;;;;41.08;21.20;;;;;;;;;;5091277;28;20048;-72
2020/12/31 10:07:33;;;;;;;46.72;22.23;;;;;;;;;;5091029;28;20471;-68
2020/12/31 10:10:00;;;;;;;46.58;21.98;;;;;;;;;;5091951;28;20040;-69
2020/12/31 10:12:26;;;;;;;37.88;19.75;;;;;;;;;;5090653;28;20039;-69
2020/12/31 10:14:53;;;;;;;45.97;21.73;;;;;;;;;;5090510;28;20072;-69
2020/12/31 10:17:20;;;;;;;46.75;21.77;;;;;;;;;;5090258;28;20242;-69
2020/12/31 10:19:47;;;;;;;41.75;21.63;;;;;;;;;;5095136;28;20122;-68
2020/12/31 10:22:13;;;;;;;41.17;21.40;;;;;;;;;;5094783;28;20040;-70
2020/12/31 10:24:40;;;;;;;38.08;20.38;;;;;;;;;;5095460;28;20059;-70
2020/12/31 10:27:06;;;;;;;40.58;22.08;;;;;;;;;;5099036;28;20058;-70
2020/12/31 10:29:33;;;;;;;46.30;23.10;;;;;;;;;;5094065;28;20127;-71
2020/12/31 10:31:59;;;;;;;37.58;21.08;;;;;;;;;;5095509;28;20036;-71
2020/12/31 10:34:27;;;;;;;49.55;23.17;;;;;;;;;;5092977;28;20093;-71
2020/12/31 10:36:54;;;;;;;45.55;22.23;;;;;;;;;;5095448;28;20054;-71
2020/12/31 10:39:20;;;;;;;47.25;25.25;;;;;;;;;;5095743;28;20043;-71
2020/12/31 10:41:47;;;;;;;59.20;26.45;;;;;;;;;;5097529;28;20063;-72
2020/12/31 10:44:14;;;;;;;50.78;23.98;;;;;;;;;;5096623;28;20384;-70
2020/12/31 10:46:41;;;;;;;52.13;24.08;;;;;;;;;;5092405;28;20051;-71
2020/12/31 10:49:07;;;;;;;47.42;24.02;;;;;;;;;;5096356;28;20122;-71
2020/12/31 10:51:35;;;;;;;40.67;20.08;;;;;;;;;;5088754;28;20551;-72
2020/12/31 10:54:02;;;;;;;37.53;19.75;;;;;;;;;;5096550;28;20042;-71
2020/12/31 10:56:28;;;;;;;36.05;18.52;;;;;;;;;;5094710;28;20036;-70
2020/12/31 10:58:54;;;;;;;35.97;17.60;;;;;;;;;;5092114;28;20517;-71
2020/12/31 11:01:21;;;;;;;33.28;16.55;;;;;;;;;;5095109;28;20629;-71
2020/12/31 11:03:47;;;;;;;34.35;18.23;;;;;;;;;;5096144;28;20096;-71
2020/12/31 11:06:25;;;;;;;37.35;19.10;;;;;;;;;;5099282;28;20044;-70
2020/12/31 11:08:53;;;;;;;29.98;15.95;;;;;;;;;;5090343;28;20479;-70
2020/12/31 11:11:20;;;;;;;33.33;17.17;;;;;;;;;;5091849;28;20040;-71
2020/12/31 11:13:46;;;;;;;29.45;15.90;;;;;;;;;;5093889;28;20093;-71
2020/12/31 11:16:13;;;;;;;30.73;17.63;;;;;;;;;;5101582;28;20123;-71
2020/12/31 11:18:40;;;;;;;36.05;20.70;;;;;;;;;;5093403;28;20051;-71
2020/12/31 11:21:07;;;;;;;26.98;16.88;;;;;;;;;;5108624;28;20036;-72
2020/12/31 11:23:34;;;;;;;26.27;16.67;;;;;;;;;;5100218;28;20106;-70
2020/12/31 11:26:00;;;;;;;21.92;14.10;;;;;;;;;;5090017;28;20052;-71
2020/12/31 11:28:26;;;;;;;28.65;16.27;;;;;;;;;;5087484;28;20043;-71
2020/12/31 11:30:52;;;;;;;26.92;15.73;;;;;;;;;;5099707;28;20036;-72
2020/12/31 11:33:19;;;;;;;28.50;16.15;;;;;;;;;;5092794;28;20036;-73
2020/12/31 11:35:45;;;;;;;24.15;13.73;;;;;;;;;;5080465;28;20522;-72
2020/12/31 11:38:12;;;;;;;25.50;13.88;;;;;;;;;;5091552;28;20050;-72
2020/12/31 11:40:38;;;;;;;21.85;11.98;;;;;;;;;;5088004;28;20036;-70
2020/12/31 11:43:04;;;;;;;16.83;9.93;;;;;;;;;;5091677;28;20184;-71
2020/12/31 11:45:31;;;;;;;19.27;9.85;;;;;;;;;;5096014;28;20059;-71
2020/12/31 11:47:57;;;;;;;18.92;10.80;;;;;;;;;;5086781;28;20593;-71
2020/12/31 11:50:24;;;;;;;17.95;9.35;;;;;;;;;;5114923;27;20036;-71
2020/12/31 11:52:50;;;;;;;24.00;9.88;;;;;;;;;;5089701;28;20032;-71
2020/12/31 11:55:16;;;;;;;16.10;9.57;;;;;;;;;;5095785;28;20048;-70
2020/12/31 11:57:42;;;;;;;18.23;9.30;;;;;;;;;;5095699;28;20075;-71
2020/12/31 12:00:09;;;;;;;19.02;10.13;;;;;;;;;;5124846;27;20059;-71
2020/12/31 12:02:35;;;;;;;18.00;10.15;;;;;;;;;;5098224;28;20526;-71
2020/12/31 12:05:02;;;;;;;19.33;10.38;;;;;;;;;;5090989;28;20039;-71
2020/12/31 12:07:28;;;;;;;25.58;13.35;;;;;;;;;;5093852;28;20220;-71
2020/12/31 12:09:55;;;;;;;19.48;10.43;;;;;;;;;;5088583;28;20048;-72
2020/12/31 12:12:21;;;;;;;17.83;11.23;;;;;;;;;;5088192;28;20102;-71
2020/12/31 12:14:47;;;;;;;18.13;11.13;;;;;;;;;;5090887;28;20561;-71
2020/12/31 12:17:14;;;;;;;17.63;10.45;;;;;;;;;;5089455;28;20086;-71
2020/12/31 12:19:40;;;;;;;17.20;10.02;;;;;;;;;;5092385;28;20479;-72
2020/12/31 12:22:06;;;;;;;21.15;11.73;;;;;;;;;;5088159;28;20083;-71
2020/12/31 12:24:33;;;;;;;21.42;13.23;;;;;;;;;;5097364;28;20486;-70
2020/12/31 12:26:59;;;;;;;24.23;13.82;;;;;;;;;;5092545;28;20130;-70
2020/12/31 12:29:26;;;;;;;25.45;13.25;;;;;;;;;;5089936;28;20036;-71
2020/12/31 12:31:52;;;;;;;24.40;13.38;;;;;;;;;;5088129;28;20043;-72
2020/12/31 12:34:19;;;;;;;29.25;15.43;;;;;;;;;;5090286;28;20164;-72
2020/12/31 12:36:52;;;;;;;24.60;15.07;;;;;;;;;;5091317;28;20048;-72
2020/12/31 12:39:18;;;;;;;28.58;15.23;;;;;;;;;;5086661;28;20452;-72
2020/12/31 12:41:45;;;;;;;27.65;15.07;;;;;;;;;;5089244;28;20494;-72
2020/12/31 12:44:12;;;;;;;26.88;14.90;;;;;;;;;;5085948;28;20130;-71
2020/12/31 12:46:38;;;;;;;22.45;12.82;;;;;;;;;;5093548;28;20032;-71
2020/12/31 12:49:04;;;;;;;19.73;12.10;;;;;;;;;;5089834;28;20067;-71
2020/12/31 12:51:31;;;;;;;24.75;13.07;;;;;;;;;;5093122;28;20066;-71
2020/12/31 12:53:57;;;;;;;23.15;11.98;;;;;;;;;;5092886;28;20043;-71
2020/12/31 12:56:24;;;;;;;21.17;11.80;;;;;;;;;;5090020;28;20028;-71
2020/12/31 12:58:50;;;;;;;17.90;11.02;;;;;;;;;;5094748;28;20040;-71
2020/12/31 13:01:16;;;;;;;22.63;11.88;;;;;;;;;;5092753;28;20150;-71
2020/12/31 13:03:44;;;;;;;24.70;13.82;;;;;;;;;;5092231;28;20135;-73
2020/12/31 13:06:11;;;;;;;22.38;12.55;;;;;;;;;;5094676;28;20448;-71
2020/12/31 13:08:37;;;;;;;23.30;12.65;;;;;;;;;;5091428;28;20036;-71
2020/12/31 13:11:04;;;;;;;20.75;12.73;;;;;;;;;;5090513;28;20479;-71
2020/12/31 13:13:31;;;;;;;21.23;12.93;;;;;;;;;;5094080;28;20047;-71
2020/12/31 13:15:57;;;;;;;27.15;13.50;;;;;;;;;;5090474;28;20047;-71
2020/12/31 13:18:24;;;;;;;22.30;13.15;;;;;;;;;;5090234;28;20123;-72
2020/12/31 13:20:50;;;;;;;19.80;12.50;;;;;;;;;;5091637;28;20032;-72
2020/12/31 13:23:16;;;;;;;21.95;12.63;;;;;;;;;;5091372;28;20046;-72
2020/12/31 13:25:43;;;;;;;21.88;11.93;;;;;;;;;;5090053;28;20116;-72
2020/12/31 13:28:09;;;;;;;20.48;13.05;;;;;;;;;;5088501;28;20037;-71
2020/12/31 13:30:35;;;;;;;22.95;13.20;;;;;;;;;;5089728;28;20043;-71
2020/12/31 13:33:02;;;;;;;23.80;14.02;;;;;;;;;;5116310;27;20036;-71
2020/12/31 13:35:28;;;;;;;25.10;13.25;;;;;;;;;;5096960;28;20054;-72
2020/12/31 13:37:54;;;;;;;22.05;14.20;;;;;;;;;;5088518;28;20381;-71
2020/12/31 13:40:21;;;;;;;21.88;13.38;;;;;;;;;;5086864;28;20055;-71
2020/12/31 13:42:47;;;;;;;20.30;12.00;;;;;;;;;;5090283;28;20048;-71
2020/12/31 13:45:13;;;;;;;18.90;12.02;;;;;;;;;;5088319;28;20071;-72
2020/12/31 13:47:41;;;;;;;16.88;10.50;;;;;;;;;;5091237;28;20036;-71
2020/12/31 13:50:08;;;;;;;18.45;9.95;;;;;;;;;;5090904;28;20040;-72
2020/12/31 13:52:35;;;;;;;17.00;8.80;;;;;;;;;;5123991;27;20032;-71
2020/12/31 13:55:01;;;;;;;15.65;8.50;;;;;;;;;;5090863;28;20047;-71
2020/12/31 13:57:27;;;;;;;18.75;8.75;;;;;;;;;;5099237;28;20153;-72
2020/12/31 13:59:53;;;;;;;17.23;9.48;;;;;;;;;;5099095;28;20478;-72
2020/12/31 14:02:20;;;;;;;17.88;11.05;;;;;;;;;;5101513;28;20044;-72
2020/12/31 14:04:46;;;;;;;19.67;10.50;;;;;;;;;;5095280;28;20074;-73
2020/12/31 14:07:12;;;;;;;17.92;11.00;;;;;;;;;;5093407;28;20126;-72
2020/12/31 14:09:39;;;;;;;18.52;7.40;;;;;;;;;;5095687;28;20036;-72
2020/12/31 14:12:06;;;;;;;12.75;6.40;;;;;;;;;;5100110;28;20157;-72
2020/12/31 14:14:32;;;;;;;12.98;6.40;;;;;;;;;;5093524;28;20035;-72
2020/12/31 14:16:58;;;;;;;10.23;6.20;;;;;;;;;;5094180;28;20113;-72
2020/12/31 14:19:25;;;;;;;11.93;5.93;;;;;;;;;;5103448;28;20046;-75
2020/12/31 14:21:51;;;;;;;8.85;5.63;;;;;;;;;;5093463;28;20066;-75
2020/12/31 14:24:17;;;;;;;12.93;6.07;;;;;;;;;;5124977;27;20459;-75